Time;durP1;ratioP1;P1;durP2;ratioP2;P2;SDS_P1;SDS_P2;PMS_P1;PMS_P2;Temp;Humidity;BMP_temperature;BMP_pressure;BME280_temperature;BME280_humidity;BME280_pressure;Samples;Min_cycle;Max_cycle;Signal;HPM_P1;HPM_P2
2022/09/08 00:00:38;;;;;;;21.48;3.13;;;;;;;14.47;100.00;98816.56;4981747;28;20030;-80
2022/09/08 00:03:08;;;;;;;18.70;2.83;;;;;;;14.48;100.00;98820.84;4971630;28;20051;-79
2022/09/08 00:05:40;;;;;;;17.48;2.85;;;;;;;14.48;100.00;98819.00;4986628;28;20026;-80
2022/09/08 00:08:07;;;;;;;25.30;3.17;;;;;;;14.48;100.00;98813.69;5003537;28;20058;-80
2022/09/08 00:10:33;;;;;;;17.65;2.60;;;;;;;14.46;100.00;98810.41;4989908;28;20053;-81
2022/09/08 00:12:59;;;;;;;18.95;3.55;;;;;;;14.46;100.00;98807.75;4974100;28;20034;-81
2022/09/08 00:15:25;;;;;;;18.95;2.80;;;;;;;14.44;100.00;98804.50;5015996;28;20058;-81
2022/09/08 00:17:51;;;;;;;22.23;3.15;;;;;;;14.45;100.00;98800.81;4988669;28;20088;-80
2022/09/08 00:20:17;;;;;;;23.38;2.85;;;;;;;14.40;100.00;98797.97;4999227;28;20122;-79
2022/09/08 00:22:43;;;;;;;17.05;2.50;;;;;;;14.39;100.00;98804.31;4970795;28;20113;-81
2022/09/08 00:25:09;;;;;;;19.17;2.70;;;;;;;14.38;100.00;98803.50;5002882;28;20039;-81
2022/09/08 00:27:34;;;;;;;20.38;2.90;;;;;;;14.38;100.00;98800.03;4992957;28;20058;-79
2022/09/08 00:30:00;;;;;;;19.45;2.45;;;;;;;14.37;100.00;98803.69;4953903;28;20042;-80
2022/09/08 00:32:26;;;;;;;12.15;2.60;;;;;;;14.36;100.00;98802.09;4970363;28;20042;-80
2022/09/08 00:34:52;;;;;;;14.40;2.25;;;;;;;14.33;100.00;98800.66;5001001;28;20041;-81
2022/09/08 00:37:18;;;;;;;14.50;2.22;;;;;;;14.31;100.00;98793.91;4968477;28;20034;-78
2022/09/08 00:39:44;;;;;;;21.63;2.75;;;;;;;14.31;100.00;98797.41;4991296;28;20109;-80
2022/09/08 00:42:10;;;;;;;20.63;2.92;;;;;;;14.31;100.00;98797.41;4989024;28;20441;-80
2022/09/08 00:44:39;;;;;;;16.92;2.80;;;;;;;14.31;100.00;98799.22;4998140;28;20045;-80
2022/09/08 00:47:13;;;;;;;18.48;2.33;;;;;;;14.29;100.00;98801.28;5023211;28;20540;-79
2022/09/08 00:49:40;;;;;;;13.40;1.98;;;;;;;14.27;100.00;98802.31;5025958;28;20528;-79
2022/09/08 00:52:06;;;;;;;17.75;2.58;;;;;;;14.28;100.00;98803.13;4952988;28;20046;-80
2022/09/08 00:54:33;;;;;;;16.48;2.13;;;;;;;14.25;100.00;98796.38;4982874;28;20497;-81
2022/09/08 00:56:59;;;;;;;15.50;2.05;;;;;;;14.22;100.00;98804.75;4999704;28;20053;-80
2022/09/08 00:59:25;;;;;;;14.70;2.45;;;;;;;14.22;100.00;98802.09;4998705;28;20075;-79
2022/09/08 01:01:52;;;;;;;15.20;2.78;;;;;;;14.15;100.00;98809.28;4952947;28;20133;-81
2022/09/08 01:04:18;;;;;;;19.63;2.20;;;;;;;14.11;100.00;98803.56;4980025;28;20038;-80
2022/09/08 01:12:45;;;;;;;16.52;2.97;;;;;;;14.00;100.00;98799.72;4962997;28;20441;-81
2022/09/08 01:15:18;;;;;;;14.68;2.33;;;;;;;13.99;100.00;98799.94;5001754;28;20388;-80
2022/09/08 01:17:47;;;;;;;17.10;2.83;;;;;;;13.96;100.00;98800.34;4981806;28;20022;-81
2022/09/08 01:20:15;;;;;;;16.20;2.30;;;;;;;13.96;100.00;98801.16;4967778;28;20392;-81
2022/09/08 01:23:00;;;;;;;16.75;2.50;;;;;;;13.95;100.00;98804.03;4997559;28;20041;-81
2022/09/08 01:25:48;;;;;;;22.50;3.15;;;;;;;13.96;100.00;98813.63;4974194;28;20145;-80
2022/09/08 01:28:25;;;;;;;13.27;2.25;;;;;;;13.96;100.00;98813.63;4982045;28;20134;-80
2022/09/08 01:30:53;;;;;;;10.35;1.67;;;;;;;13.96;100.00;98818.94;4993019;28;20103;-81
2022/09/08 01:33:20;;;;;;;16.88;2.40;;;;;;;13.98;100.00;98817.69;5010127;28;20038;-79
2022/09/08 01:35:46;;;;;;;16.88;2.20;;;;;;;14.00;100.00;98813.00;4979307;28;20488;-80
2022/09/08 01:38:12;;;;;;;12.88;2.20;;;;;;;14.01;100.00;98808.50;4990683;28;20038;-84
2022/09/08 01:40:38;;;;;;;13.35;2.15;;;;;;;14.01;100.00;98813.81;4983697;28;20053;-79
2022/09/08 01:43:08;;;;;;;10.23;2.10;;;;;;;13.99;100.00;98805.25;5003431;28;20037;-81
2022/09/08 01:45:38;;;;;;;16.17;2.65;;;;;;;13.97;100.00;98804.63;5008834;28;21024;-78
2022/09/08 01:48:05;;;;;;;16.70;2.40;;;;;;;13.95;100.00;98798.72;5001509;28;20049;-79
2022/09/08 01:50:31;;;;;;;14.82;1.80;;;;;;;13.92;100.00;98802.59;5019809;28;20041;-78
2022/09/08 01:52:57;;;;;;;13.82;2.80;;;;;;;13.92;100.00;98804.44;4977840;28;20031;-79
2022/09/08 01:55:23;;;;;;;16.10;2.33;;;;;;;13.89;100.00;98803.00;4942001;28;20039;-78
2022/09/08 01:57:48;;;;;;;19.98;2.30;;;;;;;13.88;100.00;98796.91;5002637;28;20069;-79
2022/09/08 02:00:14;;;;;;;10.52;1.95;;;;;;;13.85;100.00;98791.16;5007014;28;20449;-81
2022/09/08 02:02:40;;;;;;;11.70;2.17;;;;;;;13.87;100.00;98797.91;5003447;28;20042;-80
2022/09/08 02:05:07;;;;;;;12.38;2.78;;;;;;;13.87;100.00;98792.59;4980924;28;20035;-80
2022/09/08 02:07:36;;;;;;;19.20;2.70;;;;;;;13.87;100.00;98797.09;4980911;28;20082;-79
2022/09/08 02:10:05;;;;;;;14.85;2.47;;;;;;;13.84;100.00;98803.63;4978615;28;20026;-79
2022/09/08 02:12:31;;;;;;;13.27;2.15;;;;;;;13.79;100.00;98799.97;5003575;28;20026;-81
2022/09/08 02:14:57;;;;;;;16.52;2.47;;;;;;;13.79;100.00;98807.94;4988380;28;20045;-80
2022/09/08 02:17:23;;;;;;;18.98;2.72;;;;;;;13.79;100.00;98807.94;4981181;28;20393;-80
2022/09/08 02:19:48;;;;;;;20.48;3.20;;;;;;;13.77;100.00;98805.47;4993415;28;20051;-78
2022/09/08 02:22:14;;;;;;;14.43;2.83;;;;;;;13.77;100.00;98805.47;4998177;28;20065;-80
2022/09/08 02:24:41;;;;;;;12.48;2.00;;;;;;;13.80;100.00;98796.28;4989477;28;20037;-80
2022/09/08 02:27:07;;;;;;;14.95;2.20;;;;;;;13.79;100.00;98795.47;4972774;28;20053;-79
2022/09/08 02:29:33;;;;;;;19.95;2.40;;;;;;;13.77;100.00;98795.69;4979011;28;20065;-78
2022/09/08 02:31:59;;;;;;;15.35;2.05;;;;;;;13.80;100.00;98798.94;5001464;28;20393;-79
2022/09/08 02:34:24;;;;;;;13.80;2.67;;;;;;;13.77;100.00;98792.22;4978598;28;20031;-78
2022/09/08 02:36:50;;;;;;;13.38;2.17;;;;;;;13.77;100.00;98794.88;4969981;28;20420;-78
2022/09/08 02:39:19;;;;;;;15.70;2.15;;;;;;;13.80;100.00;98796.28;4949498;28;20362;-79
2022/09/08 02:41:45;;;;;;;17.17;1.67;;;;;;;13.74;100.00;98793.41;4980962;28;20106;-80
2022/09/08 02:44:14;;;;;;;16.65;2.17;;;;;;;13.77;100.00;98789.56;4987332;28;20117;-78
2022/09/08 02:46:41;;;;;;;23.65;2.75;;;;;;;13.81;100.00;98795.28;4938796;28;20041;-81
2022/09/08 02:49:10;;;;;;;18.85;2.65;;;;;;;13.83;100.00;98793.22;4977086;28;20441;-80
2022/09/08 02:51:36;;;;;;;14.63;1.90;;;;;;;13.83;100.00;98790.56;4991919;28;20070;-80
2022/09/08 02:54:02;;;;;;;5.05;1.20;;;;;;;13.77;100.00;98792.22;4992104;28;20035;-82
2022/09/08 02:56:29;;;;;;;6.07;1.00;;;;;;;13.74;100.00;98796.06;4963313;28;20391;-81
2022/09/08 02:58:55;;;;;;;16.73;2.30;;;;;;;13.80;100.00;98794.44;4944679;28;20054;-80
2022/09/08 03:01:22;;;;;;;20.08;3.10;;;;;;;13.84;100.00;98795.66;4999703;28;20042;-80
2022/09/08 03:03:48;;;;;;;17.38;2.42;;;;;;;13.83;100.00;98794.03;4968278;28;20046;-80
2022/09/08 03:06:15;;;;;;;12.38;2.33;;;;;;;13.86;100.00;98793.63;4983395;28;20489;-80
2022/09/08 03:08:41;;;;;;;25.50;2.85;;;;;;;13.84;100.00;98797.53;5002349;28;20065;-79
2022/09/08 03:11:08;;;;;;;18.13;2.33;;;;;;;13.81;100.00;98790.75;5001666;28;20121;-81
2022/09/08 03:13:35;;;;;;;17.35;3.03;;;;;;;13.83;100.00;98795.88;4986222;28;20026;-81
2022/09/08 03:16:02;;;;;;;16.58;2.80;;;;;;;13.82;100.00;98795.06;4959941;28;20041;-82
2022/09/08 03:18:29;;;;;;;21.13;2.58;;;;;;;13.83;100.00;98787.91;4965250;28;20038;-81
2022/09/08 03:21:06;;;;;;;17.63;2.50;;;;;;;13.84;100.00;98789.56;4988231;28;20507;-81
2022/09/08 03:23:33;;;;;;;18.38;3.10;;;;;;;13.81;100.00;98784.66;4981456;28;20038;-81
2022/09/08 03:26:04;;;;;;;17.00;2.17;;;;;;;13.84;100.00;98800.97;4979988;28;20073;-81
2022/09/08 03:28:30;;;;;;;16.80;2.10;;;;;;;13.80;100.00;98796.28;4980451;28;20062;-79
2022/09/08 03:30:56;;;;;;;13.52;1.95;;;;;;;13.82;100.00;98803.03;4988910;28;20181;-82
2022/09/08 03:33:21;;;;;;;19.30;2.78;;;;;;;13.82;100.00;98808.34;4998729;28;20129;-81
2022/09/08 03:35:48;;;;;;;14.27;2.40;;;;;;;13.82;100.00;98808.34;4987400;28;20025;-80
2022/09/08 03:38:17;;;;;;;12.45;2.10;;;;;;;13.84;100.00;98797.53;5004228;28;20045;-80
2022/09/08 03:40:44;;;;;;;16.33;3.25;;;;;;;13.83;100.00;98809.97;4988728;28;20041;-81
2022/09/08 03:43:10;;;;;;;20.88;2.17;;;;;;;13.82;100.00;98805.69;4978706;28;20086;-79
2022/09/08 03:45:43;;;;;;;19.30;2.60;;;;;;;13.84;100.00;98803.63;4965720;28;20058;-80
2022/09/08 03:48:09;;;;;;;18.65;2.55;;;;;;;13.84;100.00;98808.13;4998153;28;20053;-82
2022/09/08 03:50:35;;;;;;;15.10;2.40;;;;;;;13.84;100.00;98802.81;4975357;28;20034;-81
2022/09/08 03:53:01;;;;;;;16.75;2.03;;;;;;;13.84;100.00;98805.47;4986035;28;20038;-81
2022/09/08 03:55:26;;;;;;;11.40;2.45;;;;;;;13.85;100.00;98804.44;4983643;28;20031;-81
2022/09/08 03:57:52;;;;;;;16.15;2.33;;;;;;;13.83;100.00;98809.13;4975803;28;20420;-81
2022/09/08 04:00:18;;;;;;;14.02;1.80;;;;;;;13.82;100.00;98811.00;4978618;28;20096;-81
2022/09/08 04:02:44;;;;;;;21.40;3.13;;;;;;;13.81;100.00;98804.03;4966401;28;20126;-81
2022/09/08 04:05:10;;;;;;;25.13;2.85;;;;;;;13.81;100.00;98803.25;4987480;28;20033;-81
2022/09/08 04:07:38;;;;;;;11.98;1.65;;;;;;;13.77;100.00;98803.66;4992831;28;20110;-83
2022/09/08 04:10:07;;;;;;;17.55;2.47;;;;;;;13.80;100.00;98801.59;4994722;28;20538;-81
2022/09/08 04:12:33;;;;;;;10.02;1.83;;;;;;;13.79;100.00;98808.75;4970606;28;20034;-81
2022/09/08 04:14:59;;;;;;;10.73;1.70;;;;;;;13.83;100.00;98804.66;4957781;28;20027;-80
2022/09/08 04:17:25;;;;;;;8.88;1.98;;;;;;;13.82;100.00;98812.84;4948492;28;20099;-81
2022/09/08 04:19:51;;;;;;;18.48;2.20;;;;;;;13.84;100.00;98798.31;4993620;28;20477;-83
2022/09/08 04:22:21;;;;;;;8.85;2.05;;;;;;;13.85;100.00;98799.13;4967679;28;20061;-81
2022/09/08 04:24:47;;;;;;;10.88;1.95;;;;;;;13.85;100.00;98802.63;4988268;28;20043;-80
2022/09/08 04:27:14;;;;;;;12.88;2.60;;;;;;;13.83;100.00;98807.31;5015723;28;20038;-84
2022/09/08 04:29:40;;;;;;;16.40;2.75;;;;;;;13.87;100.00;98813.03;4984619;28;20496;-81
2022/09/08 04:32:09;;;;;;;7.55;1.67;;;;;;;13.88;100.00;98820.78;5003546;28;20022;-83
2022/09/08 04:34:38;;;;;;;11.63;1.80;;;;;;;13.90;100.00;98820.59;4975891;28;20034;-81
2022/09/08 04:37:05;;;;;;;6.30;1.13;;;;;;;13.89;100.00;98832.22;4979510;28;20070;-82
2022/09/08 04:39:31;;;;;;;9.55;1.92;;;;;;;13.90;100.00;98825.91;4998823;28;20557;-82
2022/09/08 04:41:57;;;;;;;15.00;2.58;;;;;;;13.93;100.00;98827.31;4968466;28;20398;-81
2022/09/08 04:44:23;;;;;;;15.40;2.10;;;;;;;13.90;100.00;98817.94;4991890;28;20034;-81
2022/09/08 04:46:49;;;;;;;11.70;1.98;;;;;;;13.91;100.00;98822.22;4999087;28;20128;-81
2022/09/08 04:49:15;;;;;;;7.95;1.65;;;;;;;13.91;100.00;98832.00;4984126;28;20035;-80
2022/09/08 04:51:42;;;;;;;13.63;2.05;;;;;;;13.92;100.00;98837.13;4972822;28;20378;-81
2022/09/08 04:54:09;;;;;;;11.57;1.98;;;;;;;13.93;100.00;98829.97;5023127;28;20038;-81
2022/09/08 04:56:35;;;;;;;13.88;2.17;;;;;;;13.92;100.00;98831.81;5004205;28;20041;-79
2022/09/08 04:59:02;;;;;;;17.08;2.83;;;;;;;13.90;100.00;98841.84;4974720;28;20468;-81
2022/09/08 05:01:31;;;;;;;16.73;2.00;;;;;;;13.91;100.00;98838.16;4974696;28;20046;-82
2022/09/08 05:04:00;;;;;;;14.07;2.38;;;;;;;13.88;100.00;98836.72;5004118;28;20042;-81
2022/09/08 05:06:27;;;;;;;10.23;2.60;;;;;;;13.91;100.00;98843.47;4952504;28;20164;-81
2022/09/08 05:08:55;;;;;;;9.10;2.05;;;;;;;13.89;100.00;98834.88;5008240;28;20055;-80
2022/09/08 05:11:23;;;;;;;17.17;2.60;;;;;;;13.89;100.00;98845.50;4958742;28;20050;-82
2022/09/08 05:13:49;;;;;;;14.23;2.20;;;;;;;13.87;100.00;98843.03;4980416;28;20382;-81
2022/09/08 05:16:18;;;;;;;19.75;2.50;;;;;;;13.90;100.00;98852.47;4970069;28;20034;-81
2022/09/08 05:18:49;;;;;;;10.55;1.83;;;;;;;13.87;100.00;98844.91;4965744;28;20075;-83
2022/09/08 05:21:15;;;;;;;8.35;1.83;;;;;;;13.81;100.00;98843.88;5000486;28;20089;-81
2022/09/08 05:23:42;;;;;;;14.70;2.60;;;;;;;13.81;100.00;98854.50;4970621;28;20393;-81
2022/09/08 05:26:13;;;;;;;16.02;2.88;;;;;;;13.84;100.00;98847.97;4934318;28;20039;-81
2022/09/08 05:28:40;;;;;;;12.63;2.38;;;;;;;13.82;100.00;98858.81;4972792;28;20057;-82
2022/09/08 05:31:07;;;;;;;14.95;2.17;;;;;;;13.80;100.00;98863.50;4950126;28;20034;-81
2022/09/08 05:33:33;;;;;;;17.67;2.70;;;;;;;13.79;100.00;98859.22;4986954;28;20577;-81
2022/09/08 05:36:00;;;;;;;16.65;2.17;;;;;;;13.79;100.00;98864.53;4967856;28;20045;-81
2022/09/08 05:38:27;;;;;;;14.40;2.15;;;;;;;13.79;100.00;98861.03;4965739;28;20046;-80
2022/09/08 05:40:52;;;;;;;17.85;1.75;;;;;;;13.77;100.00;98867.38;4971144;28;20061;-80
2022/09/08 05:43:19;;;;;;;12.65;1.65;;;;;;;13.75;100.00;98868.59;4984946;28;20679;-80
2022/09/08 05:45:46;;;;;;;7.22;1.42;;;;;;;13.70;100.00;98874.53;4987073;28;20151;-81
2022/09/08 05:48:11;;;;;;;13.50;2.22;;;;;;;13.70;100.00;98874.53;4977931;28;20138;-81
2022/09/08 05:50:41;;;;;;;15.00;1.77;;;;;;;13.77;100.00;98887.81;4988071;28;20030;-81
2022/09/08 05:53:07;;;;;;;18.33;2.60;;;;;;;13.70;100.00;98879.81;4984926;28;20046;-81
2022/09/08 05:55:32;;;;;;;11.80;1.40;;;;;;;13.70;100.00;98887.78;4949050;28;20034;-81
2022/09/08 05:57:58;;;;;;;11.30;1.75;;;;;;;13.71;100.00;98881.44;4989176;28;20568;-81
2022/09/08 06:00:24;;;;;;;18.05;2.38;;;;;;;13.72;100.00;98887.59;4971292;28;20039;-79
2022/09/08 06:02:51;;;;;;;12.45;2.00;;;;;;;13.72;100.00;98872.47;4968588;28;20090;-81
2022/09/08 06:05:21;;;;;;;13.20;1.77;;;;;;;13.69;100.00;98896.78;4974513;28;20038;-81
2022/09/08 06:07:48;;;;;;;12.98;2.05;;;;;;;13.69;100.00;98895.97;4980337;28;20529;-80
2022/09/08 06:10:15;;;;;;;21.90;2.65;;;;;;;13.70;100.00;98894.94;4988395;28;20031;-82
2022/09/08 06:12:41;;;;;;;9.68;1.70;;;;;;;13.68;100.00;98892.47;4992490;28;20033;-81
2022/09/08 06:15:08;;;;;;;11.10;1.67;;;;;;;13.63;100.00;98894.94;4980992;28;20026;-84
2022/09/08 06:17:33;;;;;;;11.70;2.08;;;;;;;13.67;100.00;98903.31;4976765;28;20041;-80
2022/09/08 06:19:59;;;;;;;17.20;2.75;;;;;;;13.66;100.00;98894.53;4977085;28;20033;-81
2022/09/08 06:22:25;;;;;;;15.25;2.05;;;;;;;13.67;100.00;98903.31;4988389;28;20053;-81
2022/09/08 06:24:51;;;;;;;6.88;1.30;;;;;;;13.60;100.00;98906.78;5005467;28;20041;-81
2022/09/08 06:27:22;;;;;;;12.43;1.77;;;;;;;13.61;100.00;98913.72;4984923;28;20096;-81
2022/09/08 06:30:07;;;;;;;11.50;2.10;;;;;;;13.57;100.00;98906.38;5005669;28;20048;-80
2022/09/08 06:32:38;;;;;;;5.70;1.52;;;;;;;13.53;100.00;98908.59;5007005;28;20026;-79
2022/09/08 06:35:18;;;;;;;10.80;1.60;;;;;;;13.51;100.00;98908.81;4987740;28;20372;-82
2022/09/08 06:37:49;;;;;;;7.75;1.65;;;;;;;13.50;100.00;98907.19;5005455;28;20045;-84
2022/09/08 06:40:28;;;;;;;11.20;1.85;;;;;;;13.51;100.00;98910.63;4975383;28;20377;-81
2022/09/08 06:43:14;;;;;;;16.80;1.95;;;;;;;13.50;100.00;98919.59;4971346;28;20038;-82
2022/09/08 06:45:44;;;;;;;16.73;2.70;;;;;;;13.52;100.00;98925.56;4972965;28;20044;-81
2022/09/08 06:48:29;;;;;;;17.27;2.60;;;;;;;13.53;100.00;98935.16;5019204;28;20526;-81
2022/09/08 06:51:10;;;;;;;9.98;1.77;;;;;;;13.55;100.00;98937.59;4987284;28;20523;-81
2022/09/08 06:53:41;;;;;;;14.07;1.80;;;;;;;13.55;100.00;98940.25;4982640;28;20061;-80
2022/09/08 06:56:29;;;;;;;11.32;1.65;;;;;;;13.55;100.00;98937.59;4968997;28;20073;-80
2022/09/08 06:59:00;;;;;;;7.85;1.15;;;;;;;13.54;100.00;98938.63;4987101;28;20068;-79
2022/09/08 07:01:53;;;;;;;9.38;1.70;;;;;;;13.52;100.00;98944.16;4992610;28;20034;-81
2022/09/08 07:04:25;;;;;;;13.20;2.25;;;;;;;13.51;100.00;98945.16;4986710;28;20034;-81
2022/09/08 07:07:06;;;;;;;8.88;1.70;;;;;;;13.52;100.00;98936.19;4990579;28;20040;-81
2022/09/08 07:09:46;;;;;;;11.48;1.65;;;;;;;13.50;100.00;98940.84;4997318;28;20090;-81
2022/09/08 07:13:01;;;;;;;19.05;2.40;;;;;;;13.50;100.00;98946.16;4997239;28;20033;-81
2022/09/08 07:15:57;;;;;;;19.35;2.38;;;;;;;13.50;100.00;98949.66;4976996;28;20033;-81
2022/09/08 07:18:30;;;;;;;14.25;2.40;;;;;;;13.52;100.00;98954.75;4980724;28;20038;-80
2022/09/08 07:21:28;;;;;;;13.25;1.65;;;;;;;13.51;100.00;98956.59;4972445;28;20523;-81
2022/09/08 07:23:57;;;;;;;15.38;1.88;;;;;;;13.54;100.00;98958.00;4961799;28;20069;-81
2022/09/08 07:26:41;;;;;;;13.00;2.10;;;;;;;13.55;100.00;98962.31;4988170;28;21609;-79
2022/09/08 07:29:21;;;;;;;17.63;2.63;;;;;;;13.57;100.00;98970.09;4995411;28;20037;-81
2022/09/08 07:31:50;;;;;;;12.55;1.77;;;;;;;13.56;100.00;98958.63;4931639;28;20508;-80
2022/09/08 07:34:21;;;;;;;19.85;2.28;;;;;;;13.59;100.00;98965.38;5005817;28;20037;-80
2022/09/08 07:37:11;;;;;;;9.18;1.50;;;;;;;13.55;100.00;98964.97;4986727;28;20038;-81
2022/09/08 07:39:42;;;;;;;14.45;2.28;;;;;;;13.57;100.00;98965.56;5002680;28;20030;-81
2022/09/08 07:42:13;;;;;;;5.82;1.13;;;;;;;13.54;100.00;98981.09;5006573;28;20042;-80
2022/09/08 07:44:39;;;;;;;15.18;1.60;;;;;;;13.52;100.00;98979.44;4992902;28;20140;-80
2022/09/08 07:47:56;;;;;;;13.73;2.25;;;;;;;13.51;100.00;98980.47;4984927;28;20507;-81
2022/09/08 07:50:53;;;;;;;7.95;1.60;;;;;;;13.50;100.00;98984.16;4934829;28;20086;-81
2022/09/08 07:53:18;;;;;;;20.38;2.10;;;;;;;13.54;100.00;98976.59;4931943;29;20042;-80
2022/09/08 07:55:44;;;;;;;14.38;3.75;;;;;;;13.51;100.00;98991.09;4958411;28;20188;-80
2022/09/08 07:58:25;;;;;;;12.40;1.88;;;;;;;13.52;100.00;98990.06;5002488;28;20123;-81
2022/09/08 08:01:11;;;;;;;11.07;1.73;;;;;;;13.54;100.00;98987.22;4970197;28;20046;-81
2022/09/08 08:03:40;;;;;;;12.85;1.95;;;;;;;13.54;100.00;98984.56;4992933;28;20037;-81
2022/09/08 08:06:24;;;;;;;8.13;1.60;;;;;;;13.52;100.00;98987.41;4967360;28;20037;-81
2022/09/08 08:09:09;;;;;;;8.65;1.58;;;;;;;13.55;100.00;98983.56;4968983;28;20509;-81
2022/09/08 08:11:50;;;;;;;12.98;1.90;;;;;;;13.55;100.00;98988.88;5015025;28;20076;-79
2022/09/08 08:14:19;;;;;;;21.38;2.33;;;;;;;13.55;100.00;98988.03;4992931;28;20507;-81
2022/09/08 08:17:09;;;;;;;13.55;1.83;;;;;;;13.57;100.00;98991.31;4990464;28;20065;-81
2022/09/08 08:19:35;;;;;;;11.10;2.78;;;;;;;13.58;100.00;98991.13;4988352;28;20434;-80
2022/09/08 08:22:33;;;;;;;19.27;2.80;;;;;;;13.64;100.00;98994.81;5006250;28;20096;-81
2022/09/08 08:25:12;;;;;;;12.77;1.92;;;;;;;13.63;100.00;98993.19;4977155;28;20074;-80
2022/09/08 08:27:43;;;;;;;19.05;2.58;;;;;;;13.65;100.00;98996.44;4986802;28;20448;-80
2022/09/08 08:30:21;;;;;;;13.35;1.88;;;;;;;13.71;100.00;99005.44;4998910;28;20039;-80
2022/09/08 08:33:11;;;;;;;10.48;1.65;;;;;;;13.70;100.00;99001.97;4954518;28;20039;-80
2022/09/08 08:35:48;;;;;;;14.82;2.17;;;;;;;13.75;100.00;99002.19;4976808;28;20038;-81
2022/09/08 08:38:30;;;;;;;9.75;1.58;;;;;;;13.77;100.00;98999.34;4991641;28;20038;-79
2022/09/08 08:40:58;;;;;;;17.98;2.40;;;;;;;13.82;100.00;99004.88;4997663;28;20100;-80
2022/09/08 08:43:36;;;;;;;8.63;1.42;;;;;;;13.83;100.00;99010.97;4971246;28;20788;-80
2022/09/08 08:46:15;;;;;;;13.35;1.70;;;;;;;13.87;100.00;99014.88;4988750;28;20559;-79
2022/09/08 08:49:18;;;;;;;13.27;2.08;;;;;;;13.88;100.00;99024.47;4995533;28;20045;-81
2022/09/08 08:51:43;;;;;;;6.88;1.23;;;;;;;13.90;100.00;99025.09;5006055;28;20053;-81
2022/09/08 08:54:34;;;;;;;10.63;1.98;;;;;;;13.96;100.00;99020.81;4991010;28;20133;-79
2022/09/08 08:57:21;;;;;;;12.40;1.83;;;;;;;13.97;100.00;99031.22;5023640;28;20488;-79
2022/09/08 09:00:15;;;;;;;8.38;1.10;;;;;;;13.97;100.00;99039.19;5013012;28;20031;-81
2022/09/08 09:02:50;;;;;;;10.82;1.85;;;;;;;13.99;100.00;99039.81;4984614;28;20092;-81
2022/09/08 09:05:18;;;;;;;12.30;2.00;;;;;;;14.04;100.00;99035.75;5002227;28;20041;-81
2022/09/08 09:08:13;;;;;;;13.05;1.83;;;;;;;14.10;100.00;99040.25;5001648;28;20524;-80
2022/09/08 09:11:12;;;;;;;10.25;1.42;;;;;;;14.14;100.00;99046.81;4981879;28;20046;-81
2022/09/08 09:13:49;;;;;;;5.07;1.15;;;;;;;14.16;100.00;99051.91;4973450;28;20397;-79
2022/09/08 09:16:23;;;;;;;10.13;1.98;;;;;;;14.14;100.00;99050.25;4978231;28;20037;-80
2022/09/08 09:19:18;;;;;;;7.70;1.98;;;;;;;14.19;100.00;99052.31;4985483;28;20046;-79
2022/09/08 09:21:52;;;;;;;12.38;1.80;;;;;;;14.26;100.00;99050.50;4977663;28;20037;-80
2022/09/08 09:24:53;;;;;;;15.45;2.85;;;;;;;14.26;100.00;99053.16;4984285;28;20061;-80
2022/09/08 09:27:54;;;;;;;11.85;2.20;;;;;;;14.27;100.00;99056.59;4947211;28;20497;-82
2022/09/08 09:30:22;;;;;;;9.88;1.83;;;;;;;14.32;100.00;99062.13;4987642;28;20050;-79
2022/09/08 09:33:23;;;;;;;10.15;2.00;;;;;;;14.36;100.00;99062.56;4980759;28;20044;-79
2022/09/08 09:36:14;;;;;;;10.57;1.90;;;;;;;14.37;100.00;99066.84;4984239;28;20092;-81
2022/09/08 09:39:02;;;;;;;8.30;2.15;;;;;;;14.46;100.00;99070.94;4995151;28;20073;-78
2022/09/08 09:41:43;;;;;;;16.63;2.38;;;;;;;14.49;100.00;99070.53;4955659;28;20050;-79
2022/09/08 09:44:27;;;;;;;4.93;1.23;;;;;;;14.52;100.00;99074.63;5019115;28;20110;-78
2022/09/08 09:47:05;;;;;;;13.80;1.92;;;;;;;14.60;100.00;99077.09;4955098;28;20062;-80
2022/09/08 09:49:40;;;;;;;12.30;2.88;;;;;;;14.67;100.00;99073.63;4965287;28;20367;-80
2022/09/08 09:52:53;;;;;;;17.63;2.90;;;;;;;14.72;100.00;99079.94;4987130;28;20465;-80
2022/09/08 09:55:42;;;;;;;14.50;2.85;;;;;;;14.74;100.00;99085.88;4946056;28;20078;-80
2022/09/08 09:58:13;;;;;;;18.63;2.10;;;;;;;14.74;100.00;99087.72;4952850;28;20042;-80
2022/09/08 10:01:17;;;;;;;9.82;2.45;;;;;;;14.81;100.00;99088.53;4995928;28;20038;-79
2022/09/08 10:04:20;;;;;;;13.85;2.35;;;;;;;14.83;100.00;99089.16;4970018;28;20456;-80
2022/09/08 10:07:11;;;;;;;8.73;1.92;;;;;;;14.92;100.00;99091.63;4977036;28;20035;-78
2022/09/08 10:09:46;;;;;;;9.80;1.48;;;;;;;14.95;100.00;99089.38;4974572;28;20058;-80
2022/09/08 10:12:14;;;;;;;13.47;1.93;;;;;;;14.98;100.00;99096.13;4970924;28;20039;-78
2022/09/08 10:14:55;;;;;;;10.27;2.00;;;;;;;15.05;100.00;99101.44;4980573;28;20129;-80
2022/09/08 10:17:49;;;;;;;9.40;1.83;;;;;;;15.05;100.00;99096.13;4989912;28;20045;-81
2022/09/08 10:20:36;;;;;;;15.02;1.90;;;;;;;15.17;100.00;99101.59;4993650;28;20026;-79
2022/09/08 10:23:08;;;;;;;12.35;1.98;;;;;;;15.29;100.00;99101.81;4983808;28;20042;-78
2022/09/08 10:25:49;;;;;;;8.13;1.48;;;;;;;15.42;100.00;99109.75;4985455;28;20030;-80
2022/09/08 10:28:44;;;;;;;12.73;2.08;;;;;;;15.58;100.00;99108.47;4967458;28;20508;-79
2022/09/08 10:31:51;;;;;;;12.75;2.65;;;;;;;15.70;100.00;99105.94;5000909;28;20042;-80
2022/09/08 10:34:58;;;;;;;11.10;2.05;;;;;;;15.84;100.00;99105.91;4992796;28;20038;-78
2022/09/08 10:37:46;;;;;;;6.85;1.48;;;;;;;15.92;100.00;99095.00;4998297;28;20062;-78
2022/09/08 10:40:25;;;;;;;6.97;1.38;;;;;;;15.90;100.00;99097.06;4997156;28;20034;-79
2022/09/08 10:42:58;;;;;;;6.53;1.30;;;;;;;16.01;100.00;99098.25;4955988;28;20042;-80
2022/09/08 10:45:33;;;;;;;13.00;1.52;;;;;;;16.15;100.00;99106.97;4993680;28;20034;-79
2022/09/08 10:48:23;;;;;;;9.07;1.63;;;;;;;16.19;100.00;99102.03;5007560;28;20492;-79
2022/09/08 10:50:53;;;;;;;10.95;1.67;;;;;;;16.28;100.00;99110.59;4945945;28;20093;-80
2022/09/08 10:53:25;;;;;;;8.95;1.88;;;;;;;16.43;100.00;99110.31;5012200;28;20179;-81
2022/09/08 10:56:03;;;;;;;6.07;1.60;;;;;;;16.57;100.00;99101.16;4987362;28;20044;-79
2022/09/08 10:58:59;;;;;;;9.10;1.70;;;;;;;16.83;100.00;99107.31;4995545;28;20543;-80
2022/09/08 11:01:27;;;;;;;7.97;1.55;;;;;;;17.17;100.00;99109.69;4968667;28;20050;-81
2022/09/08 11:04:21;;;;;;;7.97;1.77;;;;;;;17.17;100.00;99104.34;5000879;28;20042;-82
2022/09/08 11:07:19;;;;;;;12.52;1.70;;;;;;;17.09;100.00;99115.31;4977889;28;20047;-79
2022/09/08 11:10:16;;;;;;;8.85;1.60;;;;;;;16.87;100.00;99105.03;4936942;28;20505;-84
2022/09/08 11:12:56;;;;;;;9.40;1.45;;;;;;;16.84;100.00;99116.13;4951887;28;20066;-81
2022/09/08 11:15:44;;;;;;;7.50;1.10;;;;;;;16.75;100.00;99118.28;4982135;28;20030;-79
2022/09/08 11:18:25;;;;;;;12.05;1.48;;;;;;;16.79;100.00;99122.13;4982960;28;20034;-80
2022/09/08 11:21:07;;;;;;;5.90;1.40;;;;;;;16.71;100.00;99109.06;4976352;28;20463;-80
2022/09/08 11:23:51;;;;;;;6.88;1.30;;;;;;;16.69;100.00;99113.81;4943059;28;20058;-82
2022/09/08 11:26:23;;;;;;;5.15;0.98;;;;;;;16.75;100.00;99115.59;4970862;28;20062;-81
2022/09/08 11:29:11;;;;;;;12.10;1.60;;;;;;;17.04;100.00;99123.16;4987859;28;20065;-81
2022/09/08 11:31:47;;;;;;;8.13;1.45;;;;;;;17.27;100.00;99121.72;4986800;28;20118;-85
2022/09/08 11:34:38;;;;;;;9.02;1.10;;;;;;;17.39;100.00;99122.59;4955505;28;20049;-82
2022/09/08 11:37:16;;;;;;;7.85;1.00;;;;;;;17.46;99.93;99125.22;4978444;28;20050;-81
2022/09/08 11:40:06;;;;;;;8.02;1.50;;;;;;;17.64;100.00;99134.28;4974113;28;20030;-83
2022/09/08 11:42:53;;;;;;;4.97;1.15;;;;;;;17.66;97.39;99127.66;4999455;28;20053;-81
2022/09/08 11:45:38;;;;;;;7.57;1.17;;;;;;;17.63;96.45;99133.44;4994010;28;20563;-79
2022/09/08 11:48:28;;;;;;;4.90;0.75;;;;;;;17.52;94.20;99139.56;5004247;28;20042;-79
2022/09/08 11:51:19;;;;;;;9.50;1.17;;;;;;;17.40;96.16;99144.81;4997058;28;20035;-85
2022/09/08 11:54:26;;;;;;;6.15;1.23;;;;;;;17.31;98.71;99152.31;4953849;28;20489;-82
2022/09/08 11:57:21;;;;;;;8.43;1.60;;;;;;;17.11;100.00;99150.63;5003763;28;20409;-84